Time;durP1;ratioP1;P1;durP2;ratioP2;P2;SDS_P1;SDS_P2;PMS_P1;PMS_P2;Temp;Humidity;BMP_temperature;BMP_pressure;BME280_temperature;BME280_humidity;BME280_pressure;Samples;Min_cycle;Max_cycle;Signal;HPM_P1;HPM_P2
2022/11/16 00:00:00;;;;;;;4.03;2.13;;;;;;;;;;6120648;23;20022;-71
2022/11/16 00:02:33;;;;;;;2.45;1.40;;;;;;;;;;6121658;23;20034;-71
2022/11/16 00:05:02;;;;;;;3.45;2.20;;;;;;;;;;6122723;23;20475;-71
2022/11/16 00:07:30;;;;;;;1.27;0.73;;;;;;;;;;6122652;23;20026;-72
2022/11/16 00:09:59;;;;;;;1.50;1.40;;;;;;;;;;6122795;23;20034;-71
2022/11/16 00:12:28;;;;;;;1.63;1.05;;;;;;;;;;6120913;23;20097;-71
2022/11/16 00:14:57;;;;;;;4.97;1.73;;;;;;;;;;6122503;23;20408;-71
2022/11/16 00:17:25;;;;;;;5.82;1.42;;;;;;;;;;6122896;23;20458;-71
2022/11/16 00:19:54;;;;;;;2.20;1.02;;;;;;;;;;6122735;23;20037;-71
2022/11/16 00:22:22;;;;;;;1.30;0.88;;;;;;;;;;6121620;23;20068;-71
2022/11/16 00:24:50;;;;;;;3.63;1.25;;;;;;;;;;6123351;23;20022;-71
2022/11/16 00:27:18;;;;;;;3.78;1.77;;;;;;;;;;6123059;23;20033;-71
2022/11/16 00:29:48;;;;;;;1.40;1.13;;;;;;;;;;6123183;23;20021;-70
2022/11/16 00:32:16;;;;;;;1.20;0.77;;;;;;;;;;6121971;23;20029;-71
2022/11/16 00:34:44;;;;;;;2.95;1.75;;;;;;;;;;6123399;23;20451;-71
2022/11/16 00:37:13;;;;;;;4.20;1.60;;;;;;;;;;6121405;23;20033;-71
2022/11/16 00:39:41;;;;;;;1.55;0.90;;;;;;;;;;6122411;23;20033;-71
2022/11/16 00:42:09;;;;;;;2.40;1.60;;;;;;;;;;6122330;23;20036;-72
2022/11/16 00:44:37;;;;;;;4.30;0.95;;;;;;;;;;6122799;23;20021;-71
2022/11/16 00:47:07;;;;;;;2.45;1.27;;;;;;;;;;6122194;23;20022;-71
2022/11/16 00:49:37;;;;;;;2.95;1.52;;;;;;;;;;6122528;23;20018;-71
2022/11/16 00:52:05;;;;;;;4.88;1.00;;;;;;;;;;6123330;23;20061;-71
2022/11/16 00:54:33;;;;;;;3.80;1.30;;;;;;;;;;6125049;23;20026;-71
2022/11/16 00:57:02;;;;;;;2.58;1.20;;;;;;;;;;6124338;23;20247;-71
2022/11/16 00:59:30;;;;;;;1.63;1.30;;;;;;;;;;6113235;23;20026;-71
2022/11/16 01:01:58;;;;;;;2.17;1.42;;;;;;;;;;6123403;23;20021;-71
2022/11/16 01:04:28;;;;;;;1.80;1.42;;;;;;;;;;6125216;23;20030;-71
2022/11/16 01:06:56;;;;;;;1.92;1.13;;;;;;;;;;6124847;23;20044;-71
2022/11/16 01:09:24;;;;;;;1.38;1.25;;;;;;;;;;6125580;23;20037;-71
2022/11/16 01:12:11;;;;;;;1.83;0.95;;;;;;;;;;6122347;23;20030;-71
2022/11/16 01:14:42;;;;;;;3.55;1.40;;;;;;;;;;6125030;23;20022;-70
2022/11/16 01:17:10;;;;;;;2.78;1.15;;;;;;;;;;6124678;23;20026;-71
2022/11/16 01:19:40;;;;;;;3.65;1.10;;;;;;;;;;6124824;23;20328;-71
2022/11/16 01:22:08;;;;;;;1.90;1.30;;;;;;;;;;6124389;23;20030;-71
2022/11/16 01:24:36;;;;;;;2.08;1.75;;;;;;;;;;6124161;23;20026;-71
2022/11/16 01:27:05;;;;;;;2.95;2.63;;;;;;;;;;6124283;23;20022;-71
2022/11/16 01:29:33;;;;;;;3.13;1.90;;;;;;;;;;6124348;23;20054;-71
2022/11/16 01:32:01;;;;;;;2.58;1.35;;;;;;;;;;6123071;23;20036;-71
2022/11/16 01:34:29;;;;;;;2.50;1.23;;;;;;;;;;6125418;23;20041;-71
2022/11/16 01:36:59;;;;;;;1.73;0.85;;;;;;;;;;6122874;23;20029;-71
2022/11/16 01:39:27;;;;;;;1.55;0.68;;;;;;;;;;6125526;23;20025;-71
2022/11/16 01:41:55;;;;;;;3.15;1.48;;;;;;;;;;6123763;23;20026;-71
2022/11/16 01:44:42;;;;;;;3.75;1.45;;;;;;;;;;6123554;23;20030;-72
2022/11/16 01:47:13;;;;;;;3.35;1.42;;;;;;;;;;6123516;23;20026;-72
2022/11/16 01:49:42;;;;;;;3.50;1.30;;;;;;;;;;6124170;23;20025;-72
2022/11/16 01:52:14;;;;;;;3.10;1.13;;;;;;;;;;6125213;23;20037;-72
2022/11/16 01:54:43;;;;;;;4.72;2.05;;;;;;;;;;6123462;23;20057;-72
2022/11/16 01:57:13;;;;;;;3.67;1.90;;;;;;;;;;6124361;23;20025;-71
2022/11/16 01:59:42;;;;;;;2.60;1.92;;;;;;;;;;6124571;23;20029;-71
2022/11/16 02:02:10;;;;;;;4.53;2.13;;;;;;;;;;6122998;23;20029;-71
2022/11/16 02:04:38;;;;;;;3.15;1.98;;;;;;;;;;6123886;23;20065;-71
2022/11/16 02:07:10;;;;;;;2.40;1.77;;;;;;;;;;6123688;23;20077;-71
2022/11/16 02:09:53;;;;;;;5.60;2.60;;;;;;;;;;6123122;23;20022;-71
2022/11/16 02:12:38;;;;;;;4.05;1.90;;;;;;;;;;6123440;23;20092;-71
2022/11/16 02:15:10;;;;;;;6.07;2.30;;;;;;;;;;6124315;23;20025;-71
2022/11/16 02:17:41;;;;;;;5.00;2.00;;;;;;;;;;6124413;23;20336;-71
2022/11/16 02:20:22;;;;;;;10.23;3.42;;;;;;;;;;6123711;23;20032;-71
2022/11/16 02:22:59;;;;;;;4.53;1.90;;;;;;;;;;6122274;23;20026;-71
2022/11/16 02:25:31;;;;;;;3.95;2.47;;;;;;;;;;6122136;23;20018;-71
2022/11/16 02:28:10;;;;;;;2.75;1.92;;;;;;;;;;6123099;23;20018;-71
2022/11/16 02:30:41;;;;;;;8.13;3.58;;;;;;;;;;6123490;23;20030;-71
2022/11/16 02:33:10;;;;;;;6.57;2.42;;;;;;;;;;6124131;23;20029;-71
2022/11/16 02:35:40;;;;;;;5.63;2.40;;;;;;;;;;6123306;23;20473;-71
2022/11/16 02:38:11;;;;;;;3.42;1.70;;;;;;;;;;6124722;23;20037;-71
2022/11/16 02:40:41;;;;;;;1.48;1.38;;;;;;;;;;6122310;23;20022;-71
2022/11/16 02:43:11;;;;;;;4.43;2.47;;;;;;;;;;6123185;23;20033;-71
2022/11/16 02:45:42;;;;;;;3.70;1.85;;;;;;;;;;6123632;23;20022;-71
2022/11/16 02:48:12;;;;;;;3.47;1.85;;;;;;;;;;6124228;23;20069;-71
2022/11/16 02:50:41;;;;;;;3.22;1.95;;;;;;;;;;6122756;23;20028;-71
2022/11/16 02:53:09;;;;;;;3.63;1.77;;;;;;;;;;6124370;23;20033;-71
2022/11/16 02:55:38;;;;;;;3.72;2.55;;;;;;;;;;6122942;23;20021;-71
2022/11/16 02:58:07;;;;;;;3.88;1.83;;;;;;;;;;6121660;23;20045;-71
2022/11/16 03:00:42;;;;;;;3.67;2.05;;;;;;;;;;6120950;23;20022;-71
2022/11/16 03:03:10;;;;;;;;;;;;;;;;;;6122691;23;20505;-71
2022/11/16 03:05:42;;;;;;;3.03;1.38;;;;;;;;;;6123194;23;19917;-71
2022/11/16 03:08:14;;;;;;;3.15;2.08;;;;;;;;;;6123098;23;20424;-71
2022/11/16 03:13:31;;;;;;;5.00;3.38;;;;;;;;;;6123903;23;20022;-71
2022/11/16 03:16:01;;;;;;;3.65;1.65;;;;;;;;;;6124104;23;20018;-71
2022/11/16 03:18:29;;;;;;;6.78;1.92;;;;;;;;;;6122329;23;20025;-71
2022/11/16 03:21:06;;;;;;;5.15;2.15;;;;;;;;;;6124173;23;20052;-71
2022/11/16 03:23:34;;;;;;;3.45;1.58;;;;;;;;;;6123325;23;20026;-71
2022/11/16 03:26:05;;;;;;;4.15;2.05;;;;;;;;;;6122454;23;20355;-71
2022/11/16 03:28:35;;;;;;;5.88;1.80;;;;;;;;;;6122797;23;20021;-71
2022/11/16 03:31:06;;;;;;;4.00;1.90;;;;;;;;;;6123904;23;20024;-71
2022/11/16 03:33:36;;;;;;;4.07;2.38;;;;;;;;;;6124423;23;20089;-71
2022/11/16 03:36:08;;;;;;;3.53;1.83;;;;;;;;;;6121310;23;20459;-71
2022/11/16 03:38:37;;;;;;;4.38;2.08;;;;;;;;;;6121610;23;20022;-71
2022/11/16 03:41:07;;;;;;;3.17;1.25;;;;;;;;;;6121785;23;20025;-71
2022/11/16 03:43:36;;;;;;;2.60;1.73;;;;;;;;;;6123591;23;20018;-72
2022/11/16 03:46:05;;;;;;;2.40;1.63;;;;;;;;;;6123840;23;20018;-72
2022/11/16 03:48:35;;;;;;;3.75;1.60;;;;;;;;;;6122807;23;20084;-71
2022/11/16 03:51:04;;;;;;;2.25;1.38;;;;;;;;;;6121216;23;20032;-71
2022/11/16 03:53:34;;;;;;;2.42;1.02;;;;;;;;;;6122481;23;20026;-71
2022/11/16 03:56:02;;;;;;;5.70;1.60;;;;;;;;;;6123062;23;20026;-71
2022/11/16 03:58:31;;;;;;;3.83;1.65;;;;;;;;;;6120647;23;20030;-71
2022/11/16 04:00:59;;;;;;;4.00;1.67;;;;;;;;;;6122277;23;20025;-71
2022/11/16 04:03:28;;;;;;;5.28;1.92;;;;;;;;;;6122490;23;20064;-70
2022/11/16 04:25:30;;;;;;;;;;;;;;;;;;6013164;23;20474;-71
2022/11/16 04:28:15;;;;;;;5.47;1.27;;;;;;;;;;6122018;23;19921;-71
2022/11/16 04:38:59;;;;;;;6.43;2.92;;;;;;;;;;6121931;23;20018;-71
2022/11/16 04:44:20;;;;;;;9.05;2.55;;;;;;;;;;6093142;23;20028;-71
2022/11/16 04:47:05;;;;;;;5.85;2.80;;;;;;;;;;6121942;23;20057;-71
2022/11/16 04:49:33;;;;;;;4.70;1.88;;;;;;;;;;6121971;23;20117;-71
2022/11/16 04:52:02;;;;;;;4.85;1.77;;;;;;;;;;6120537;23;20026;-71
2022/11/16 04:54:30;;;;;;;4.68;2.22;;;;;;;;;;6110588;23;20432;-71
2022/11/16 04:56:58;;;;;;;5.32;2.25;;;;;;;;;;6121131;23;20026;-71
2022/11/16 04:59:28;;;;;;;5.15;2.13;;;;;;;;;;6121498;23;20026;-71
2022/11/16 05:02:08;;;;;;;5.75;1.77;;;;;;;;;;6121551;23;20059;-71
2022/11/16 05:04:37;;;;;;;3.53;1.23;;;;;;;;;;6124198;23;20022;-70
2022/11/16 05:07:09;;;;;;;6.35;1.98;;;;;;;;;;6122029;23;20046;-71
2022/11/16 05:09:40;;;;;;;2.58;1.30;;;;;;;;;;6123097;23;20030;-71
2022/11/16 05:12:08;;;;;;;2.63;1.30;;;;;;;;;;6121872;23;20028;-71
2022/11/16 05:14:38;;;;;;;3.58;1.65;;;;;;;;;;6122859;23;20451;-70
2022/11/16 05:17:06;;;;;;;3.88;2.28;;;;;;;;;;6121330;23;20026;-70
2022/11/16 05:22:20;;;;;;;5.57;1.90;;;;;;;;;;6120779;23;20022;-70
2022/11/16 05:24:48;;;;;;;1.92;1.52;;;;;;;;;;6125199;23;20034;-70
2022/11/16 05:27:18;;;;;;;4.50;2.08;;;;;;;;;;6121038;23;20022;-67
2022/11/16 05:29:48;;;;;;;3.55;1.67;;;;;;;;;;6122229;23;20021;-70
2022/11/16 05:32:17;;;;;;;4.30;2.40;;;;;;;;;;6121626;23;20026;-70
2022/11/16 05:34:45;;;;;;;6.78;2.22;;;;;;;;;;6122917;23;20029;-70
2022/11/16 05:37:14;;;;;;;5.00;2.35;;;;;;;;;;6123014;23;20033;-71
2022/11/16 05:39:42;;;;;;;2.50;1.67;;;;;;;;;;6125521;23;20044;-71
2022/11/16 05:42:11;;;;;;;2.60;0.93;;;;;;;;;;6122704;23;20033;-71
2022/11/16 05:44:39;;;;;;;4.18;2.10;;;;;;;;;;6121837;23;20034;-71
2022/11/16 05:47:09;;;;;;;2.20;1.95;;;;;;;;;;6123953;23;20018;-71
2022/11/16 05:49:37;;;;;;;2.92;1.95;;;;;;;;;;6124173;23;20022;-72
2022/11/16 05:52:05;;;;;;;2.00;1.58;;;;;;;;;;6121736;23;20030;-71
2022/11/16 05:54:33;;;;;;;6.80;2.38;;;;;;;;;;6125959;23;20474;-71
2022/11/16 05:57:02;;;;;;;4.50;2.17;;;;;;;;;;6122893;23;20025;-71
2022/11/16 05:59:30;;;;;;;4.32;1.20;;;;;;;;;;6124121;23;20029;-72
2022/11/16 06:01:58;;;;;;;4.45;1.73;;;;;;;;;;6123538;23;20037;-72
2022/11/16 06:04:28;;;;;;;6.90;2.33;;;;;;;;;;6124036;23;20093;-71
2022/11/16 06:06:56;;;;;;;3.03;1.23;;;;;;;;;;6120966;23;20022;-71
2022/11/16 06:09:24;;;;;;;4.65;1.90;;;;;;;;;;6124350;23;20022;-71
2022/11/16 06:11:53;;;;;;;3.63;1.85;;;;;;;;;;6122834;23;20455;-72
2022/11/16 06:14:21;;;;;;;5.75;2.25;;;;;;;;;;6124074;23;20025;-71
2022/11/16 06:16:49;;;;;;;3.30;2.03;;;;;;;;;;6123774;23;20026;-71
2022/11/16 06:19:18;;;;;;;2.15;1.40;;;;;;;;;;6122005;23;20041;-72
2022/11/16 06:21:47;;;;;;;1.95;1.23;;;;;;;;;;6121715;23;20036;-71
2022/11/16 06:24:16;;;;;;;3.05;1.30;;;;;;;;;;6123948;23;20026;-71
2022/11/16 06:26:45;;;;;;;6.22;1.98;;;;;;;;;;6124973;23;20018;-71
2022/11/16 06:29:15;;;;;;;3.47;1.77;;;;;;;;;;6123923;23;20384;-71
2022/11/16 06:31:44;;;;;;;3.10;1.80;;;;;;;;;;6121840;23;20049;-72
2022/11/16 06:34:12;;;;;;;2.80;1.77;;;;;;;;;;6123674;23;20132;-71
2022/11/16 06:36:40;;;;;;;2.47;1.58;;;;;;;;;;6124983;23;20018;-71
2022/11/16 06:39:10;;;;;;;2.25;1.98;;;;;;;;;;6121979;23;20028;-72
2022/11/16 06:41:39;;;;;;;3.60;1.50;;;;;;;;;;6123177;23;20060;-72
2022/11/16 06:44:08;;;;;;;4.85;2.63;;;;;;;;;;6119224;23;20018;-72
2022/11/16 06:46:37;;;;;;;3.17;1.83;;;;;;;;;;6121945;23;20022;-72
2022/11/16 06:49:05;;;;;;;2.58;1.42;;;;;;;;;;6119296;23;20044;-72
2022/11/16 06:51:33;;;;;;;5.43;2.17;;;;;;;;;;6117223;23;20029;-73
2022/11/16 06:54:02;;;;;;;3.63;1.70;;;;;;;;;;6117329;23;20036;-73
2022/11/16 06:56:33;;;;;;;4.30;1.20;;;;;;;;;;6118889;23;20329;-74
2022/11/16 06:59:02;;;;;;;6.53;2.28;;;;;;;;;;6119393;23;20026;-73
2022/11/16 07:01:30;;;;;;;2.95;1.02;;;;;;;;;;6117858;23;20311;-73
2022/11/16 07:03:58;;;;;;;7.07;2.40;;;;;;;;;;6118347;23;20022;-73
2022/11/16 07:06:27;;;;;;;2.03;1.65;;;;;;;;;;6118583;23;20042;-73
2022/11/16 07:08:56;;;;;;;0.85;0.75;;;;;;;;;;6119354;23;20026;-73
2022/11/16 07:11:24;;;;;;;8.25;2.20;;;;;;;;;;6116428;23;20104;-73
2022/11/16 07:13:54;;;;;;;3.45;2.25;;;;;;;;;;6119358;23;20053;-74
2022/11/16 07:16:22;;;;;;;3.78;1.38;;;;;;;;;;6118554;23;20490;-73
2022/11/16 07:18:50;;;;;;;4.93;1.73;;;;;;;;;;6119282;23;20026;-73
2022/11/16 07:21:19;;;;;;;3.92;1.58;;;;;;;;;;6118499;23;20034;-72
2022/11/16 07:23:47;;;;;;;1.92;1.75;;;;;;;;;;6119301;23;20026;-71
2022/11/16 07:26:15;;;;;;;1.30;1.17;;;;;;;;;;6118968;23;20021;-72
2022/11/16 07:28:44;;;;;;;2.97;1.25;;;;;;;;;;6117901;23;20029;-72
2022/11/16 07:31:17;;;;;;;3.20;1.85;;;;;;;;;;6115781;23;20022;-72
2022/11/16 07:33:45;;;;;;;2.78;1.33;;;;;;;;;;6118818;23;20022;-72
2022/11/16 07:36:14;;;;;;;2.70;2.05;;;;;;;;;;6119362;23;20328;-72
2022/11/16 07:38:43;;;;;;;7.35;2.28;;;;;;;;;;6117292;23;20021;-71
2022/11/16 07:41:12;;;;;;;4.03;1.33;;;;;;;;;;6088841;23;20028;-72
2022/11/16 07:43:41;;;;;;;3.83;1.80;;;;;;;;;;6090343;23;20026;-72
2022/11/16 07:46:11;;;;;;;6.20;2.50;;;;;;;;;;6087716;23;20036;-72
2022/11/16 07:49:01;;;;;;;2.72;1.75;;;;;;;;;;6089835;23;20083;-72
2022/11/16 07:51:33;;;;;;;3.67;2.17;;;;;;;;;;6086142;23;20033;-72
2022/11/16 07:54:01;;;;;;;5.35;2.72;;;;;;;;;;6089185;23;20037;-72
2022/11/16 07:56:29;;;;;;;3.75;2.10;;;;;;;;;;6077016;23;20054;-72
2022/11/16 07:58:58;;;;;;;5.15;1.50;;;;;;;;;;6088656;23;20447;-71
2022/11/16 08:01:26;;;;;;;5.28;2.83;;;;;;;;;;6089298;23;20048;-73
2022/11/16 08:03:55;;;;;;;3.05;1.90;;;;;;;;;;6090370;23;20046;-73
2022/11/16 08:06:26;;;;;;;5.55;1.70;;;;;;;;;;6088930;23;20022;-72
2022/11/16 08:08:54;;;;;;;4.20;2.10;;;;;;;;;;6090084;23;20041;-72
2022/11/16 08:11:26;;;;;;;3.85;1.65;;;;;;;;;;6088751;23;20097;-72
2022/11/16 08:13:55;;;;;;;3.47;2.67;;;;;;;;;;6090437;23;20381;-72
2022/11/16 08:16:23;;;;;;;4.38;2.35;;;;;;;;;;6089631;23;20034;-71
2022/11/16 08:18:52;;;;;;;4.05;2.22;;;;;;;;;;6089902;23;20109;-72
2022/11/16 08:21:20;;;;;;;2.75;2.08;;;;;;;;;;6087395;23;20026;-72
2022/11/16 08:23:50;;;;;;;4.90;2.50;;;;;;;;;;6087606;23;20027;-74
2022/11/16 08:26:25;;;;;;;4.60;1.73;;;;;;;;;;6090931;23;20082;-73
2022/11/16 08:28:55;;;;;;;5.82;2.42;;;;;;;;;;6093016;23;20343;-73
2022/11/16 08:31:24;;;;;;;4.72;3.00;;;;;;;;;;6090298;23;20028;-73
2022/11/16 08:33:53;;;;;;;4.05;1.48;;;;;;;;;;6093559;23;20067;-73
2022/11/16 08:36:22;;;;;;;2.90;1.63;;;;;;;;;;6092931;23;20064;-73
2022/11/16 08:38:52;;;;;;;4.25;2.17;;;;;;;;;;6096187;23;20471;-72
2022/11/16 08:41:20;;;;;;;4.70;1.75;;;;;;;;;;6119528;23;20030;-72
2022/11/16 08:43:52;;;;;;;2.15;1.45;;;;;;;;;;6119697;23;20313;-72
2022/11/16 08:46:21;;;;;;;4.65;2.15;;;;;;;;;;6119426;23;20034;-72
2022/11/16 08:48:49;;;;;;;2.40;1.90;;;;;;;;;;6121033;23;20057;-73
2022/11/16 08:51:18;;;;;;;5.28;1.90;;;;;;;;;;6120388;23;20026;-72
2022/11/16 08:53:48;;;;;;;2.58;1.20;;;;;;;;;;6122815;23;20438;-73
2022/11/16 08:56:18;;;;;;;2.97;1.60;;;;;;;;;;6122355;23;20030;-73
2022/11/16 08:58:47;;;;;;;2.63;1.83;;;;;;;;;;6120123;23;20022;-74
2022/11/16 09:01:23;;;;;;;5.47;2.03;;;;;;;;;;6121713;23;20026;-73
2022/11/16 09:03:52;;;;;;;4.90;1.88;;;;;;;;;;6122993;23;20459;-74
2022/11/16 09:06:21;;;;;;;5.63;2.50;;;;;;;;;;6122611;23;20032;-73
2022/11/16 09:08:50;;;;;;;5.30;2.47;;;;;;;;;;6123009;23;20530;-74
2022/11/16 09:11:22;;;;;;;7.07;2.97;;;;;;;;;;6120833;23;20073;-73
2022/11/16 09:13:51;;;;;;;2.67;1.60;;;;;;;;;;6124589;23;20053;-73
2022/11/16 09:16:20;;;;;;;3.90;2.28;;;;;;;;;;6124642;23;20026;-73
2022/11/16 09:18:50;;;;;;;5.18;2.55;;;;;;;;;;6119863;23;20066;-73
2022/11/16 09:21:20;;;;;;;2.05;1.85;;;;;;;;;;6120417;23;20030;-73
2022/11/16 09:23:48;;;;;;;2.35;1.73;;;;;;;;;;6120524;23;20022;-73
2022/11/16 09:26:20;;;;;;;5.28;1.42;;;;;;;;;;6121338;23;20053;-73
2022/11/16 09:28:54;;;;;;;6.43;1.90;;;;;;;;;;6119309;23;20371;-73
2022/11/16 09:31:23;;;;;;;3.65;3.10;;;;;;;;;;6119935;23;20534;-73
2022/11/16 09:33:51;;;;;;;3.55;1.65;;;;;;;;;;6121147;23;20649;-74
2022/11/16 09:36:20;;;;;;;3.22;1.55;;;;;;;;;;6119911;23;20025;-73
2022/11/16 09:38:49;;;;;;;1.65;1.42;;;;;;;;;;6119234;23;20351;-73
2022/11/16 09:41:43;;;;;;;2.42;1.35;;;;;;;;;;6118645;23;20578;-73
2022/11/16 09:44:19;;;;;;;4.03;1.80;;;;;;;;;;6120366;23;20119;-73
2022/11/16 09:46:52;;;;;;;1.95;0.95;;;;;;;;;;6119929;23;20332;-73
2022/11/16 09:49:22;;;;;;;1.05;0.98;;;;;;;;;;6119778;23;20105;-73
2022/11/16 09:51:53;;;;;;;0.90;0.65;;;;;;;;;;6119748;23;20271;-73
2022/11/16 09:54:23;;;;;;;1.05;0.90;;;;;;;;;;6120500;23;20061;-72
2022/11/16 09:56:54;;;;;;;0.65;0.65;;;;;;;;;;6118687;23;20462;-73
2022/11/16 09:59:26;;;;;;;1.40;0.95;;;;;;;;;;6119331;23;20026;-73
2022/11/16 10:01:56;;;;;;;1.83;0.88;;;;;;;;;;6118915;23;20483;-73
2022/11/16 10:04:27;;;;;;;1.48;0.75;;;;;;;;;;6119247;23;20030;-73
2022/11/16 10:06:58;;;;;;;1.42;0.77;;;;;;;;;;6121166;23;20022;-73
2022/11/16 10:09:26;;;;;;;5.93;1.10;;;;;;;;;;6120485;23;20021;-73
2022/11/16 10:12:10;;;;;;;1.42;1.33;;;;;;;;;;6118672;23;20029;-73
2022/11/16 10:15:00;;;;;;;1.95;1.35;;;;;;;;;;6117958;23;20053;-73
2022/11/16 10:17:37;;;;;;;1.50;1.08;;;;;;;;;;6116217;23;20026;-72
2022/11/16 10:20:17;;;;;;;4.55;1.20;;;;;;;;;;6117744;23;20093;-73
2022/11/16 10:22:50;;;;;;;1.80;1.52;;;;;;;;;;6117872;23;20057;-72
2022/11/16 10:25:21;;;;;;;5.22;1.45;;;;;;;;;;6120522;23;20025;-73
2022/11/16 10:27:58;;;;;;;2.22;1.33;;;;;;;;;;6120448;23;20022;-74
2022/11/16 10:30:27;;;;;;;15.98;1.42;;;;;;;;;;6117246;23;20026;-73
2022/11/16 10:32:59;;;;;;;1.48;0.98;;;;;;;;;;6117826;23;20037;-73
2022/11/16 10:35:29;;;;;;;3.10;0.90;;;;;;;;;;6107228;23;20026;-72
2022/11/16 10:37:59;;;;;;;2.03;1.00;;;;;;;;;;6119520;23;20470;-73
2022/11/16 10:40:29;;;;;;;0.80;0.73;;;;;;;;;;6118089;23;20021;-73
2022/11/16 10:43:01;;;;;;;4.40;1.88;;;;;;;;;;6117166;23;20463;-73
2022/11/16 10:45:34;;;;;;;3.45;1.38;;;;;;;;;;6119226;23;20026;-74
2022/11/16 10:48:08;;;;;;;2.95;0.85;;;;;;;;;;6120037;23;20025;-73
2022/11/16 10:50:39;;;;;;;2.80;1.23;;;;;;;;;;6118045;23;20332;-73
2022/11/16 10:53:12;;;;;;;1.05;0.70;;;;;;;;;;6118542;23;20463;-72
2022/11/16 10:55:40;;;;;;;2.28;1.20;;;;;;;;;;6119918;23;20026;-72
2022/11/16 10:58:09;;;;;;;2.60;1.20;;;;;;;;;;6117447;23;20347;-72
2022/11/16 11:00:42;;;;;;;1.70;0.80;;;;;;;;;;6118467;23;20018;-72
2022/11/16 11:03:12;;;;;;;2.50;1.50;;;;;;;;;;6123815;23;20029;-72
2022/11/16 11:05:48;;;;;;;5.60;1.70;;;;;;;;;;6123648;23;20022;-73
2022/11/16 11:08:25;;;;;;;1.83;1.23;;;;;;;;;;6120811;23;20550;-73
2022/11/16 11:12:36;;;;;;;2.25;1.50;;;;;;;;;;6120839;23;20033;-73
2022/11/16 11:14:05;;;;;;;1.83;1.13;;;;;;;;;;6122314;23;20022;-73
2022/11/16 11:16:33;;;;;;;0.82;0.63;;;;;;;;;;6122370;23;20021;-72
2022/11/16 11:19:16;;;;;;;1.90;1.40;;;;;;;;;;6121930;23;20085;-72
2022/11/16 11:21:48;;;;;;;4.25;1.48;;;;;;;;;;6119790;23;20030;-72
2022/11/16 11:24:17;;;;;;;2.67;1.33;;;;;;;;;;6121873;23;20026;-73
2022/11/16 11:27:05;;;;;;;2.58;1.42;;;;;;;;;;6120038;23;20030;-73
2022/11/16 11:29:37;;;;;;;1.50;0.95;;;;;;;;;;6120092;23;20527;-72
2022/11/16 11:32:06;;;;;;;1.65;0.93;;;;;;;;;;6120908;23;20432;-73
2022/11/16 11:34:40;;;;;;;3.83;1.40;;;;;;;;;;6122131;23;20036;-73
2022/11/16 11:37:14;;;;;;;1.58;0.80;;;;;;;;;;6121794;23;20347;-73
2022/11/16 11:39:43;;;;;;;3.58;1.38;;;;;;;;;;6122038;23;20034;-73
2022/11/16 11:42:21;;;;;;;2.47;1.77;;;;;;;;;;6122801;23;20123;-74
2022/11/16 11:44:56;;;;;;;6.30;1.70;;;;;;;;;;6122371;23;20097;-73
2022/11/16 11:47:26;;;;;;;2.85;1.70;;;;;;;;;;6122466;23;20022;-73
2022/11/16 11:50:16;;;;;;;4.35;1.27;;;;;;;;;;6122550;23;20419;-74
2022/11/16 11:52:50;;;;;;;2.85;1.25;;;;;;;;;;6122889;23;20325;-73
2022/11/16 11:55:19;;;;;;;3.50;1.38;;;;;;;;;;6118152;23;20022;-74
2022/11/16 11:57:51;;;;;;;2.90;1.23;;;;;;;;;;6123666;23;20018;-73
2022/11/16 12:00:20;;;;;;;3.03;0.95;;;;;;;;;;6118806;23;20028;-74
2022/11/16 12:02:58;;;;;;;2.03;0.98;;;;;;;;;;6122639;23;20403;-75
2022/11/16 12:05:44;;;;;;;1.92;1.20;;;;;;;;;;6123183;23;20032;-74
2022/11/16 12:08:21;;;;;;;4.28;1.95;;;;;;;;;;6121349;23;20025;-73
2022/11/16 12:10:51;;;;;;;1.38;1.00;;;;;;;;;;6120748;23;20093;-74
2022/11/16 12:13:42;;;;;;;3.50;0.82;;;;;;;;;;6121725;23;20431;-75
2022/11/16 12:16:14;;;;;;;2.42;1.00;;;;;;;;;;6121592;23;20074;-74
2022/11/16 12:18:51;;;;;;;2.17;0.88;;;;;;;;;;6122802;23;20060;-74
2022/11/16 12:21:22;;;;;;;1.13;0.73;;;;;;;;;;6122470;23;20022;-74
2022/11/16 12:23:57;;;;;;;1.08;0.80;;;;;;;;;;6120633;23;20032;-74
2022/11/16 12:26:29;;;;;;;2.60;0.93;;;;;;;;;;6123824;23;20030;-74
2022/11/16 12:29:04;;;;;;;6.35;1.05;;;;;;;;;;6123374;23;20025;-74
2022/11/16 12:31:38;;;;;;;3.13;1.20;;;;;;;;;;6121458;23;20110;-75
2022/11/16 12:34:10;;;;;;;2.75;1.05;;;;;;;;;;6123619;23;20033;-74
2022/11/16 12:36:42;;;;;;;2.78;1.27;;;;;;;;;;6122999;23;20100;-74
2022/11/16 12:39:19;;;;;;;3.70;1.25;;;;;;;;;;6120403;23;20030;-73
2022/11/16 12:41:53;;;;;;;1.95;0.45;;;;;;;;;;6120764;23;20057;-75
2022/11/16 12:44:26;;;;;;;2.40;0.80;;;;;;;;;;6122660;23;20029;-75
2022/11/16 12:47:00;;;;;;;1.73;0.85;;;;;;;;;;6121898;23;20033;-75
2022/11/16 12:49:51;;;;;;;1.63;0.80;;;;;;;;;;6122857;23;20173;-75
2022/11/16 12:52:27;;;;;;;1.00;0.55;;;;;;;;;;6116956;23;20343;-75
2022/11/16 12:55:02;;;;;;;1.38;0.73;;;;;;;;;;6121313;23;20585;-75
2022/11/16 12:57:55;;;;;;;2.58;1.33;;;;;;;;;;6122758;23;20022;-75
2022/11/16 13:00:24;;;;;;;2.50;1.23;;;;;;;;;;6123488;23;20105;-75
2022/11/16 13:02:59;;;;;;;1.15;0.60;;;;;;;;;;6122618;23;20101;-75
2022/11/16 13:05:35;;;;;;;1.65;0.95;;;;;;;;;;6122221;23;20033;-73
2022/11/16 13:08:05;;;;;;;1.00;0.90;;;;;;;;;;6122998;23;20026;-74
2022/11/16 13:10:37;;;;;;;4.50;1.15;;;;;;;;;;6121900;23;20105;-75
2022/11/16 13:13:11;;;;;;;3.30;1.75;;;;;;;;;;6123126;23;20030;-74
2022/11/16 13:16:01;;;;;;;1.92;1.20;;;;;;;;;;6122862;23;20351;-74
2022/11/16 13:18:30;;;;;;;1.15;0.90;;;;;;;;;;6122880;23;20024;-74
2022/11/16 13:21:02;;;;;;;8.57;1.27;;;;;;;;;;6119270;23;20032;-73
2022/11/16 13:23:38;;;;;;;1.42;0.80;;;;;;;;;;6121165;23;20101;-73
2022/11/16 13:26:10;;;;;;;1.45;0.77;;;;;;;;;;6121815;23;20037;-75
2022/11/16 13:28:42;;;;;;;3.15;0.90;;;;;;;;;;6121469;23;20568;-76
2022/11/16 13:31:13;;;;;;;2.22;1.23;;;;;;;;;;6122285;23;20014;-75
2022/11/16 13:33:46;;;;;;;2.90;0.88;;;;;;;;;;6123350;23;20022;-77
2022/11/16 13:36:38;;;;;;;0.57;0.57;;;;;;;;;;6124120;23;20074;-75
2022/11/16 13:39:07;;;;;;;2.88;0.77;;;;;;;;;;6122051;23;20033;-76
2022/11/16 13:41:38;;;;;;;4.40;1.27;;;;;;;;;;6122869;23;20037;-75
2022/11/16 13:44:11;;;;;;;2.63;1.10;;;;;;;;;;6123384;23;20026;-75
2022/11/16 13:46:44;;;;;;;4.20;1.15;;;;;;;;;;6121715;23;20018;-75
2022/11/16 13:49:30;;;;;;;2.33;1.25;;;;;;;;;;6121266;23;20026;-75
2022/11/16 13:52:02;;;;;;;1.45;0.75;;;;;;;;;;6121889;23;20025;-75
2022/11/16 13:54:51;;;;;;;0.75;0.65;;;;;;;;;;6121946;23;20053;-75
2022/11/16 13:57:24;;;;;;;3.40;1.10;;;;;;;;;;6121892;23;20025;-75
2022/11/16 14:00:08;;;;;;;3.42;1.20;;;;;;;;;;6122823;23;20024;-74
2022/11/16 14:02:37;;;;;;;1.73;0.80;;;;;;;;;;6124107;23;20096;-75
2022/11/16 14:05:06;;;;;;;1.85;1.20;;;;;;;;;;6123977;23;20088;-74
2022/11/16 14:07:39;;;;;;;1.38;0.82;;;;;;;;;;6124671;23;20029;-75
2022/11/16 14:10:07;;;;;;;2.92;1.25;;;;;;;;;;6124098;23;20026;-74
2022/11/16 14:12:57;;;;;;;1.13;0.65;;;;;;;;;;6123332;23;20503;-74
2022/11/16 14:15:37;;;;;;;3.47;1.10;;;;;;;;;;6124691;23;20062;-75
2022/11/16 14:18:24;;;;;;;2.30;0.60;;;;;;;;;;6123755;23;20542;-75
2022/11/16 14:20:56;;;;;;;1.15;1.05;;;;;;;;;;6122738;23;20068;-74
2022/11/16 14:23:29;;;;;;;3.65;0.60;;;;;;;;;;6123390;23;20097;-75
2022/11/16 14:26:06;;;;;;;7.18;1.08;;;;;;;;;;6123009;23;20459;-73
2022/11/16 14:28:48;;;;;;;2.28;0.88;;;;;;;;;;6124398;23;20466;-74
2022/11/16 14:31:24;;;;;;;1.85;1.05;;;;;;;;;;6121942;23;20065;-74
2022/11/16 14:33:53;;;;;;;1.48;1.10;;;;;;;;;;6124421;23;20021;-74
2022/11/16 14:36:35;;;;;;;1.52;0.60;;;;;;;;;;6122442;23;20033;-74
2022/11/16 14:39:27;;;;;;;2.10;0.82;;;;;;;;;;6123639;23;20025;-74
2022/11/16 14:41:57;;;;;;;1.00;0.40;;;;;;;;;;6102464;23;20085;-74
2022/11/16 14:44:28;;;;;;;3.53;1.15;;;;;;;;;;6123433;23;20061;-75
2022/11/16 14:46:58;;;;;;;1.20;0.82;;;;;;;;;;6123266;23;20022;-74
2022/11/16 14:49:27;;;;;;;0.57;0.40;;;;;;;;;;6122323;23;20026;-75
2022/11/16 14:51:57;;;;;;;1.33;1.00;;;;;;;;;;6123440;23;20049;-75
2022/11/16 14:54:30;;;;;;;0.73;0.47;;;;;;;;;;6123450;23;20025;-75
2022/11/16 14:57:00;;;;;;;1.92;0.68;;;;;;;;;;6122787;23;20026;-75
2022/11/16 14:59:29;;;;;;;0.57;0.45;;;;;;;;;;6122871;23;20355;-74
2022/11/16 15:02:01;;;;;;;1.38;0.32;;;;;;;;;;6122957;23;20106;-75
2022/11/16 15:04:30;;;;;;;2.00;0.65;;;;;;;;;;6123837;23;20463;-75
2022/11/16 15:07:02;;;;;;;0.70;0.35;;;;;;;;;;6122894;23;20022;-76
2022/11/16 15:09:31;;;;;;;0.38;0.38;;;;;;;;;;6123828;23;20120;-75
2022/11/16 15:14:50;;;;;;;0.60;0.40;;;;;;;;;;6124189;23;20022;-75
2022/11/16 15:17:21;;;;;;;1.23;0.45;;;;;;;;;;6122700;23;20030;-74
2022/11/16 15:19:55;;;;;;;0.93;0.30;;;;;;;;;;6122567;23;20404;-74
2022/11/16 15:22:25;;;;;;;0.20;0.20;;;;;;;;;;6123567;23;20038;-74
2022/11/16 15:24:55;;;;;;;0.65;0.40;;;;;;;;;;6123312;23;20021;-74
2022/11/16 15:27:31;;;;;;;0.52;0.40;;;;;;;;;;6121628;23;20025;-75
2022/11/16 15:30:00;;;;;;;0.73;0.30;;;;;;;;;;6123621;23;20022;-75
2022/11/16 15:32:36;;;;;;;3.55;0.55;;;;;;;;;;6121640;23;20475;-75
2022/11/16 15:35:05;;;;;;;1.52;0.55;;;;;;;;;;6120693;23;20051;-75
2022/11/16 15:37:34;;;;;;;0.43;0.22;;;;;;;;;;6120408;23;20022;-74
2022/11/16 15:40:02;;;;;;;0.57;0.47;;;;;;;;;;6120974;23;20113;-75
2022/11/16 15:42:31;;;;;;;0.40;0.30;;;;;;;;;;6120568;23;20149;-75
2022/11/16 15:45:00;;;;;;;8.15;0.70;;;;;;;;;;6121616;23;20029;-74
2022/11/16 15:47:30;;;;;;;0.52;0.40;;;;;;;;;;6120585;23;20033;-75